createdAt,value
2018-07-03T00:02:07.070Z,80.43
2018-07-03T00:04:37.563Z,80.71
2018-07-03T00:07:07.878Z,81.11
2018-07-03T00:09:38.287Z,80.67
2018-07-03T00:12:08.635Z,80.85
2018-07-03T00:14:39.270Z,79.87
2018-07-03T00:17:14.773Z,81.04
2018-07-03T00:19:47.009Z,81.73
2018-07-03T00:22:17.816Z,81.57
2018-07-03T00:24:48.239Z,81.97
2018-07-03T00:27:19.555Z,82.91
2018-07-03T00:29:50.067Z,82.58
2018-07-03T00:32:20.776Z,84.14
2018-07-03T00:34:50.960Z,83.97
2018-07-03T00:37:21.600Z,83.70
2018-07-03T00:39:52.301Z,84.35
2018-07-03T00:42:22.826Z,84.30
2018-07-03T00:44:53.230Z,84.19
2018-07-03T00:47:23.715Z,83.44
2018-07-03T00:49:54.208Z,81.78
2018-07-03T00:52:24.663Z,81.41
2018-07-03T00:54:55.108Z,81.18
2018-07-03T00:57:25.528Z,81.69
2018-07-03T01:00:06.967Z,81.83
2018-07-03T01:02:37.189Z,82.25
2018-07-03T01:05:07.722Z,82.57
2018-07-03T01:07:45.286Z,82.81
2018-07-03T01:10:15.756Z,83.07
2018-07-03T01:12:46.176Z,83.19
2018-07-03T01:15:16.434Z,83.06
2018-07-03T01:17:46.817Z,83.31
2018-07-03T01:20:18.160Z,83.91
2018-07-03T01:22:48.720Z,83.65
2018-07-03T01:25:19.314Z,83.41
2018-07-03T01:27:49.693Z,84.55
2018-07-03T01:30:20.102Z,84.83
2018-07-03T01:32:50.590Z,84.31
2018-07-03T01:35:21.024Z,83.70
2018-07-03T01:37:51.361Z,84.01
2018-07-03T01:40:22.278Z,84.82
2018-07-03T01:42:53.586Z,84.94
2018-07-03T01:45:24.419Z,84.75
2018-07-03T01:47:54.812Z,84.44
2018-07-03T01:50:25.250Z,84.06
2018-07-03T01:52:55.851Z,84.51
2018-07-03T01:55:26.292Z,84.71
2018-07-03T01:57:56.628Z,84.60
2018-07-03T02:00:27.371Z,84.82
2018-07-03T02:02:57.827Z,84.46
2018-07-03T02:05:28.511Z,84.62
2018-07-03T02:07:58.847Z,85.33
2018-07-03T02:10:29.508Z,85.11
2018-07-03T02:12:59.879Z,85.23
2018-07-03T02:15:31.150Z,85.54
2018-07-03T02:18:01.526Z,84.97
2018-07-03T02:20:31.848Z,84.26
2018-07-03T02:23:02.317Z,84.57
2018-07-03T02:25:32.646Z,84.19
2018-07-03T02:28:03.122Z,84.84
2018-07-03T02:30:33.670Z,85.04
2018-07-03T02:33:03.986Z,84.16
2018-07-03T02:35:34.401Z,84.08
2018-07-03T02:38:04.949Z,85.15
2018-07-03T02:40:35.409Z,86.21
2018-07-03T02:43:06.098Z,87.67
2018-07-03T02:45:36.353Z,87.80
2018-07-03T02:48:06.752Z,88.38
2018-07-03T02:50:37.124Z,88.40
2018-07-03T02:53:07.475Z,88.07
2018-07-03T02:55:38.286Z,88.41
2018-07-03T02:58:08.660Z,87.95
2018-07-03T03:00:39.240Z,88.48
2018-07-03T03:03:09.853Z,88.64
2018-07-03T03:05:40.475Z,88.62
2018-07-03T03:08:11.106Z,88.85
2018-07-03T03:10:41.364Z,88.56
2018-07-03T03:13:11.923Z,88.60
2018-07-03T03:15:42.320Z,88.78
2018-07-03T03:18:12.684Z,88.31
2018-07-03T03:20:43.221Z,88.62
2018-07-03T03:23:13.616Z,88.42
2018-07-03T03:25:44.187Z,87.73
2018-07-03T03:28:14.644Z,86.37
2018-07-03T03:30:45.045Z,85.22
2018-07-03T03:33:15.553Z,84.47
2018-07-03T03:35:45.995Z,83.12
2018-07-03T03:38:16.334Z,82.04
2018-07-03T03:40:46.679Z,81.12
2018-07-03T03:43:17.232Z,79.99
2018-07-03T03:45:47.568Z,78.98
2018-07-03T03:48:17.865Z,78.28
2018-07-03T03:50:48.662Z,76.40
2018-07-03T03:53:19.250Z,75.82
2018-07-03T03:55:49.704Z,75.15
2018-07-03T03:58:20.171Z,73.16
2018-07-03T04:00:50.727Z,72.66
2018-07-03T04:03:21.308Z,72.45
2018-07-03T04:05:52.031Z,71.32
2018-07-03T04:08:22.417Z,70.31
2018-07-03T04:10:53.066Z,68.39
2018-07-03T04:13:23.459Z,67.80
2018-07-03T04:15:54.020Z,65.41
2018-07-03T04:18:29.167Z,65.62
2018-07-03T04:20:59.781Z,65.25
2018-07-03T04:23:30.484Z,62.98
2018-07-03T04:26:00.972Z,62.30
2018-07-03T04:28:32.054Z,61.00
2018-07-03T04:31:02.945Z,61.51
2018-07-03T04:33:33.596Z,58.60
2018-07-03T04:36:04.138Z,57.77
2018-07-03T04:38:35.213Z,56.86
2018-07-03T04:41:05.531Z,56.71
2018-07-03T04:43:35.860Z,56.69
2018-07-03T04:46:06.204Z,55.76
2018-07-03T04:48:36.852Z,55.37
2018-07-03T04:51:07.350Z,53.90
2018-07-03T04:53:38.080Z,52.97
2018-07-03T04:56:08.563Z,53.12
2018-07-03T04:58:38.876Z,52.37
2018-07-03T05:03:45.052Z,50.40
2018-07-03T05:06:15.355Z,49.34
2018-07-03T05:08:45.872Z,49.37
2018-07-03T05:11:16.164Z,48.35
2018-07-03T05:13:46.642Z,49.09
2018-07-03T05:16:17.139Z,49.21
2018-07-03T05:18:47.587Z,48.50
2018-07-03T05:21:18.130Z,47.52
2018-07-03T05:23:48.392Z,45.99
2018-07-03T05:26:18.839Z,45.72
2018-07-03T05:31:25.025Z,43.85
2018-07-03T05:33:55.697Z,43.69
2018-07-03T05:36:25.832Z,43.34
2018-07-03T05:38:56.447Z,41.90
2018-07-03T05:41:27.247Z,42.37
2018-07-03T05:43:57.694Z,44.29
2018-07-03T05:46:28.069Z,43.30
2018-07-03T05:48:58.650Z,43.17
2018-07-03T05:51:29.112Z,41.63
2018-07-03T05:53:59.395Z,41.41
2018-07-03T05:56:29.681Z,43.58
2018-07-03T05:59:00.248Z,43.75
2018-07-03T06:01:30.636Z,43.56
2018-07-03T06:04:01.390Z,43.19
2018-07-03T06:06:32.109Z,40.91
2018-07-03T06:09:02.909Z,40.75
2018-07-03T06:11:33.581Z,39.29
2018-07-03T06:14:04.000Z,38.80
2018-07-03T06:16:34.631Z,38.30
2018-07-03T06:19:05.462Z,37.79
2018-07-03T06:21:35.999Z,40.37
2018-07-03T06:24:06.427Z,39.91
2018-07-03T06:26:36.967Z,39.27
2018-07-03T06:29:07.533Z,39.35
2018-07-03T06:31:37.891Z,39.45
2018-07-03T06:34:08.437Z,39.86
2018-07-03T06:36:38.743Z,37.94
2018-07-03T06:39:12.314Z,36.78
2018-07-03T06:41:42.974Z,37.90
2018-07-03T06:44:13.359Z,35.01
2018-07-03T06:46:43.854Z,34.69
2018-07-03T06:49:14.458Z,32.52
2018-07-03T06:51:44.801Z,35.34
2018-07-03T06:54:15.119Z,34.58
2018-07-03T06:56:45.588Z,35.12
2018-07-03T06:59:16.033Z,34.63
2018-07-03T07:01:46.516Z,34.57
2018-07-03T07:04:17.072Z,34.77
2018-07-03T07:06:47.430Z,33.62
2018-07-03T07:09:18.573Z,33.53
2018-07-03T07:11:48.887Z,32.10
2018-07-03T07:14:19.562Z,31.59
2018-07-03T07:16:49.807Z,30.86
2018-07-03T07:19:21.114Z,33.41
2018-07-03T07:21:51.672Z,31.64
2018-07-03T07:24:22.160Z,31.50
2018-07-03T07:26:52.601Z,26.93
2018-07-03T07:29:23.914Z,25.89
2018-07-03T07:31:54.275Z,28.28
2018-07-03T07:34:24.881Z,26.50
2018-07-03T07:36:55.304Z,27.71
2018-07-03T07:39:25.930Z,28.30
2018-07-03T07:41:56.335Z,28.43
2018-07-03T07:44:26.747Z,29.17
2018-07-03T07:46:57.377Z,30.46
2018-07-03T07:49:27.949Z,29.24
2018-07-03T07:51:58.426Z,28.53
2018-07-03T07:54:28.836Z,27.95
2018-07-03T07:56:59.416Z,29.16
2018-07-03T07:59:29.889Z,27.76
2018-07-03T08:02:00.325Z,27.84
2018-07-03T08:04:30.812Z,25.39
2018-07-03T08:07:01.182Z,28.01
2018-07-03T08:09:31.800Z,26.12
2018-07-03T08:12:02.099Z,24.07
2018-07-03T08:14:32.611Z,23.46
2018-07-03T08:17:03.292Z,23.82
2018-07-03T08:19:33.872Z,24.13
2018-07-03T08:22:04.306Z,23.95
2018-07-03T08:24:34.982Z,24.09
2018-07-03T08:27:05.296Z,24.33
2018-07-03T08:29:35.729Z,24.62
2018-07-03T08:32:06.434Z,24.79
2018-07-03T08:34:36.785Z,26.21
2018-07-03T08:37:07.102Z,26.13
2018-07-03T08:39:37.544Z,25.82
2018-07-03T08:42:08.097Z,24.88
2018-07-03T08:44:38.669Z,26.51
2018-07-03T08:47:08.979Z,25.48
2018-07-03T08:49:39.495Z,23.15
2018-07-03T08:52:10.905Z,27.07
2018-07-03T08:54:41.296Z,25.32
2018-07-03T08:57:11.659Z,26.88
2018-07-03T08:59:42.051Z,26.44
2018-07-03T09:02:12.466Z,27.53
2018-07-03T09:04:43.724Z,27.35
2018-07-03T09:07:14.800Z,27.88
2018-07-03T09:09:45.195Z,26.80
2018-07-03T09:12:15.639Z,26.48
2018-07-03T09:14:46.128Z,24.85
2018-07-03T09:17:21.610Z,25.28
2018-07-03T09:19:51.972Z,26.60
2018-07-03T09:22:22.284Z,24.50
2018-07-03T09:24:52.612Z,24.09
2018-07-03T09:27:23.138Z,23.94
2018-07-03T09:29:54.004Z,24.21
2018-07-03T09:32:24.230Z,24.49
2018-07-03T09:34:54.648Z,24.22
2018-07-03T09:37:24.996Z,22.74
2018-07-03T09:39:55.418Z,26.88
2018-07-03T09:42:25.794Z,25.71
2018-07-03T09:44:56.111Z,26.24
2018-07-03T09:47:27.174Z,25.59
2018-07-03T09:49:58.190Z,25.94
2018-07-03T09:52:28.539Z,28.06
2018-07-03T09:54:58.943Z,26.05
2018-07-03T09:57:29.293Z,25.30
2018-07-03T09:59:59.520Z,25.47
2018-07-03T10:02:30.138Z,25.13
2018-07-03T10:05:00.372Z,24.55
2018-07-03T10:07:31.023Z,23.81
2018-07-03T10:10:01.266Z,24.32
2018-07-03T10:12:31.645Z,22.90
2018-07-03T10:15:01.976Z,24.20
2018-07-03T10:17:32.292Z,25.10
2018-07-03T10:20:02.745Z,24.89
2018-07-03T10:22:33.225Z,23.28
2018-07-03T10:25:03.831Z,22.86
2018-07-03T10:27:34.199Z,23.75
2018-07-03T10:30:04.667Z,24.17
2018-07-03T10:32:35.044Z,23.18
2018-07-03T10:35:05.425Z,23.65
2018-07-03T10:37:35.912Z,24.48
2018-07-03T10:40:06.670Z,24.26
2018-07-03T10:42:37.072Z,23.19
2018-07-03T10:45:07.482Z,21.54
2018-07-03T10:47:37.823Z,23.23
2018-07-03T10:50:08.330Z,21.75
2018-07-03T10:52:38.521Z,20.91
2018-07-03T10:55:08.879Z,20.34
2018-07-03T10:57:39.199Z,21.70
2018-07-03T11:00:09.555Z,21.04
2018-07-03T11:02:39.872Z,23.39
2018-07-03T11:05:10.277Z,25.97
2018-07-03T11:07:40.728Z,22.65
2018-07-03T11:10:11.114Z,22.21
2018-07-03T11:12:41.673Z,22.12
2018-07-03T11:15:12.398Z,22.46
2018-07-03T11:17:42.927Z,22.62
2018-07-03T11:20:13.376Z,24.64
2018-07-03T11:22:43.701Z,23.25
2018-07-03T11:25:13.892Z,24.31
2018-07-03T11:27:44.194Z,25.02
2018-07-03T11:30:15.018Z,25.71
2018-07-03T11:32:45.258Z,26.68
2018-07-03T11:35:15.484Z,27.66
2018-07-03T11:37:46.627Z,27.19
2018-07-03T11:40:16.932Z,26.71
2018-07-03T11:42:47.219Z,28.20
2018-07-03T11:45:17.498Z,29.03
2018-07-03T11:47:47.824Z,29.36
2018-07-03T11:50:18.147Z,29.90
2018-07-03T11:52:48.485Z,30.29
2018-07-03T11:55:18.879Z,30.26
2018-07-03T11:57:49.423Z,30.94
2018-07-03T12:00:20.236Z,29.58
2018-07-03T12:02:50.619Z,29.33
2018-07-03T12:05:22.480Z,29.61
2018-07-03T12:07:53.986Z,29.44
2018-07-03T12:10:25.259Z,30.32
2018-07-03T12:12:55.828Z,30.09
2018-07-03T12:15:26.188Z,30.37
2018-07-03T12:17:56.573Z,29.10
2018-07-03T12:20:26.887Z,27.35
2018-07-03T12:22:57.566Z,29.04
2018-07-03T12:25:28.102Z,28.64
2018-07-03T12:27:58.464Z,29.34
2018-07-03T12:30:28.970Z,27.76
2018-07-03T12:32:59.598Z,28.77
2018-07-03T12:35:30.069Z,30.51
2018-07-03T12:38:00.750Z,30.28
2018-07-03T12:40:31.174Z,30.10
2018-07-03T12:43:01.625Z,29.54
2018-07-03T12:45:32.238Z,29.63
2018-07-03T12:48:02.751Z,29.09
2018-07-03T12:50:33.109Z,28.55
2018-07-03T12:53:03.616Z,28.47
2018-07-03T12:55:33.997Z,27.74
2018-07-03T12:58:04.598Z,28.24
2018-07-03T13:00:35.147Z,27.49
2018-07-03T13:03:05.564Z,27.67
2018-07-03T13:05:36.055Z,27.75
2018-07-03T13:08:16.773Z,27.38
2018-07-03T13:10:47.864Z,26.68
2018-07-03T13:13:18.279Z,25.99
2018-07-03T13:15:48.744Z,24.97
2018-07-03T13:18:23.195Z,24.91
2018-07-03T13:20:54.728Z,25.43
2018-07-03T13:23:26.120Z,25.48
2018-07-03T13:25:56.553Z,26.00
2018-07-03T13:28:27.107Z,26.34
2018-07-03T13:30:57.394Z,25.97
2018-07-03T13:33:27.756Z,26.27
2018-07-03T13:35:58.213Z,24.55
2018-07-03T13:38:28.990Z,25.06
2018-07-03T13:40:59.619Z,23.98
2018-07-03T13:43:30.166Z,24.44
2018-07-03T13:46:03.971Z,23.97
2018-07-03T13:48:34.401Z,24.31
2018-07-03T13:51:04.921Z,23.39
2018-07-03T13:53:35.328Z,21.23
2018-07-03T13:56:06.076Z,19.26
2018-07-03T13:58:36.459Z,19.37
2018-07-03T14:01:06.868Z,20.33
2018-07-03T14:03:37.333Z,22.08
2018-07-03T14:06:07.793Z,22.64
2018-07-03T14:08:38.099Z,22.45
2018-07-03T14:11:09.108Z,23.19
2018-07-03T14:13:39.706Z,22.36
2018-07-03T14:16:10.038Z,22.04
2018-07-03T14:18:40.516Z,22.56
2018-07-03T14:21:10.833Z,22.11
2018-07-03T14:23:41.403Z,23.37
2018-07-03T14:26:12.236Z,22.96
2018-07-03T14:28:42.611Z,23.09
2018-07-03T14:31:12.938Z,22.45
2018-07-03T14:33:43.373Z,21.48
2018-07-03T14:36:13.545Z,21.92
2018-07-03T14:38:44.115Z,22.64
2018-07-03T14:41:14.357Z,22.00
2018-07-03T14:43:44.684Z,22.65
2018-07-03T14:46:15.049Z,22.82
2018-07-03T14:48:45.297Z,22.56
2018-07-03T14:51:15.759Z,22.62
2018-07-03T14:53:46.476Z,22.30
2018-07-03T14:56:16.887Z,22.70
2018-07-03T14:58:47.260Z,23.20
2018-07-03T15:01:19.809Z,23.34
2018-07-03T15:03:50.075Z,24.09
2018-07-03T15:06:20.378Z,23.06
2018-07-03T15:08:50.690Z,23.25
2018-07-03T15:11:21.197Z,23.35
2018-07-03T15:13:52.392Z,22.78
2018-07-03T15:16:22.696Z,23.40
2018-07-03T15:18:57.884Z,23.62
2018-07-03T15:21:28.194Z,24.61
2018-07-03T15:23:58.554Z,24.25
2018-07-03T15:26:28.855Z,24.62
2018-07-03T15:28:59.417Z,23.83
2018-07-03T15:31:29.911Z,24.41
2018-07-03T15:34:00.311Z,24.06
2018-07-03T15:36:30.931Z,24.88
2018-07-03T15:39:01.235Z,24.70
2018-07-03T15:41:31.635Z,24.30
2018-07-03T15:44:12.688Z,24.75
2018-07-03T15:46:43.028Z,26.29
2018-07-03T15:49:13.256Z,25.47
2018-07-03T15:51:43.811Z,25.67
2018-07-03T15:54:14.198Z,24.50
2018-07-03T15:56:44.605Z,25.27
2018-07-03T15:59:15.060Z,25.54
2018-07-03T16:01:45.404Z,25.00
2018-07-03T16:05:28.793Z,24.91
2018-07-03T16:08:14.091Z,26.62
2018-07-03T16:10:44.517Z,24.96
2018-07-03T16:13:14.863Z,25.37
2018-07-03T16:15:45.262Z,26.67
2018-07-03T16:18:15.483Z,25.61
2018-07-03T16:20:45.803Z,25.77
2018-07-03T16:23:16.116Z,25.71
2018-07-03T16:25:46.573Z,26.18
2018-07-03T16:28:16.864Z,25.72
2018-07-03T16:30:47.199Z,26.36
2018-07-03T16:33:17.611Z,25.71
2018-07-03T16:35:48.055Z,26.39
2018-07-03T16:38:18.481Z,26.15
2018-07-03T16:40:49.265Z,26.31
2018-07-03T16:43:19.743Z,27.57
2018-07-03T16:45:50.061Z,28.76
2018-07-03T16:48:21.327Z,29.13
2018-07-03T16:50:51.754Z,28.49
2018-07-03T16:53:22.236Z,28.71
2018-07-03T16:55:52.589Z,28.96
2018-07-03T16:58:22.953Z,30.08
2018-07-03T17:00:53.248Z,30.30
2018-07-03T17:03:23.528Z,30.15
2018-07-03T17:05:53.773Z,30.87
2018-07-03T17:08:24.272Z,29.59
2018-07-03T17:10:55.110Z,29.51
2018-07-03T17:13:25.596Z,30.60
2018-07-03T17:15:55.939Z,31.02
2018-07-03T17:18:26.256Z,30.42
2018-07-03T17:20:56.608Z,31.43
2018-07-03T17:23:27.031Z,31.84
2018-07-03T17:25:57.442Z,32.41
2018-07-03T17:28:28.090Z,32.92
2018-07-03T17:30:58.579Z,33.27
2018-07-03T17:33:28.866Z,33.24
2018-07-03T17:35:59.248Z,33.95
2018-07-03T17:38:29.639Z,34.42
2018-07-03T17:41:11.091Z,35.08
2018-07-03T17:44:06.405Z,35.87
2018-07-03T17:46:36.916Z,35.91
2018-07-03T17:49:07.852Z,35.81
2018-07-03T17:51:38.075Z,36.78
2018-07-03T17:54:09.174Z,37.94
2018-07-03T17:56:39.661Z,35.96
2018-07-03T17:59:09.988Z,36.36
2018-07-03T18:01:40.708Z,39.39
2018-07-03T18:04:11.055Z,39.84
2018-07-03T18:06:41.594Z,39.03
2018-07-03T18:09:12.977Z,39.40
2018-07-03T18:11:43.358Z,39.15
2018-07-03T18:14:13.583Z,39.20
2018-07-03T18:16:44.135Z,39.20
2018-07-03T18:19:19.625Z,39.82
2018-07-03T18:21:49.956Z,40.02
2018-07-03T18:24:20.330Z,39.99
2018-07-03T18:26:50.719Z,40.16
2018-07-03T18:29:21.118Z,41.27
2018-07-03T18:31:51.581Z,41.81
2018-07-03T18:34:22.072Z,41.86
2018-07-03T18:36:52.462Z,42.64
2018-07-03T18:39:22.932Z,43.22
2018-07-03T18:41:53.380Z,43.81
2018-07-03T18:44:23.579Z,44.34
2018-07-03T18:46:53.827Z,44.24
2018-07-03T18:49:24.256Z,44.17
2018-07-03T18:51:54.488Z,44.09
2018-07-03T18:54:24.961Z,45.30
2018-07-03T18:56:55.276Z,45.63
2018-07-03T18:59:25.995Z,46.12
2018-07-03T19:01:56.383Z,47.00
2018-07-03T19:04:26.714Z,47.70
2018-07-03T19:06:57.210Z,48.36
2018-07-03T19:09:28.135Z,48.91
2018-07-03T19:11:58.467Z,49.68
2018-07-03T19:14:28.912Z,50.62
2018-07-03T19:16:59.458Z,50.75
2018-07-03T19:19:29.780Z,51.53
2018-07-03T19:22:00.494Z,51.59
2018-07-03T19:24:30.788Z,51.80
2018-07-03T19:27:01.239Z,51.63
2018-07-03T19:29:31.634Z,51.69
2018-07-03T19:32:02.237Z,52.32
2018-07-03T19:34:32.514Z,52.22
2018-07-03T19:37:03.034Z,52.67
2018-07-03T19:39:33.537Z,52.14
2018-07-03T19:42:03.816Z,52.15
2018-07-03T19:44:34.469Z,51.85
2018-07-03T19:47:05.043Z,51.99
2018-07-03T19:49:35.828Z,51.57
2018-07-03T19:52:06.206Z,51.32
2018-07-03T19:54:37.088Z,51.58
2018-07-03T19:57:08.641Z,51.86
2018-07-03T19:59:38.860Z,51.68
2018-07-03T20:02:09.964Z,52.19
2018-07-03T20:04:41.202Z,52.26
2018-07-03T20:07:11.328Z,52.56
2018-07-03T20:09:41.653Z,52.84
2018-07-03T20:12:11.976Z,53.53
2018-07-03T20:14:42.333Z,53.89
2018-07-03T20:17:13.640Z,53.24
2018-07-03T20:19:44.117Z,53.17
2018-07-03T20:22:14.384Z,53.47
2018-07-03T20:24:45.018Z,54.22
2018-07-03T20:27:15.397Z,54.89
2018-07-03T20:29:45.970Z,56.54
2018-07-03T20:32:16.483Z,57.26
2018-07-03T20:34:46.926Z,56.93
2018-07-03T20:37:17.369Z,57.90
2018-07-03T20:39:47.894Z,57.66
2018-07-03T20:42:18.439Z,58.88
2018-07-03T20:44:48.871Z,60.14
2018-07-03T20:47:19.312Z,60.81
2018-07-03T20:49:49.603Z,60.18
2018-07-03T20:52:20.117Z,59.79
2018-07-03T20:54:50.578Z,59.50
2018-07-03T20:57:21.116Z,59.60
2018-07-03T20:59:51.495Z,59.95
2018-07-03T21:02:22.848Z,59.50
2018-07-03T21:04:53.402Z,60.77
2018-07-03T21:07:23.969Z,60.71
2018-07-03T21:09:54.435Z,60.43
2018-07-03T21:12:24.672Z,59.86
2018-07-03T21:14:55.667Z,59.52
2018-07-03T21:17:26.091Z,59.41
2018-07-03T21:19:56.430Z,59.04
2018-07-03T21:22:26.788Z,59.55
2018-07-03T21:24:57.055Z,59.66
2018-07-03T21:27:27.665Z,59.84
2018-07-03T21:29:58.036Z,59.96
2018-07-03T21:32:28.319Z,60.15
2018-07-03T21:34:58.718Z,60.86
2018-07-03T21:37:28.892Z,61.83
2018-07-03T21:39:59.304Z,62.34
2018-07-03T21:42:29.396Z,62.36
2018-07-03T21:44:59.712Z,63.35
2018-07-03T21:47:30.097Z,64.10
2018-07-03T21:50:02.217Z,63.90
2018-07-03T21:52:32.567Z,64.46
2018-07-03T21:55:03.322Z,63.88
2018-07-03T21:57:33.629Z,63.81
2018-07-03T22:00:04.350Z,63.50
2018-07-03T22:02:34.577Z,63.16
2018-07-03T22:05:05.027Z,62.84
2018-07-03T22:07:35.653Z,62.98
2018-07-03T22:10:05.989Z,62.18
2018-07-03T22:12:36.337Z,62.99
2018-07-03T22:15:06.968Z,62.88
2018-07-03T22:17:37.257Z,63.24
2018-07-03T22:20:07.824Z,63.63
2018-07-03T22:22:38.343Z,63.70
2018-07-03T22:25:08.603Z,63.73
2018-07-03T22:27:38.831Z,64.04
2018-07-03T22:30:09.169Z,63.78
2018-07-03T22:32:39.349Z,64.22
2018-07-03T22:35:10.766Z,64.18
2018-07-03T22:37:41.612Z,63.98
2018-07-03T22:40:12.032Z,64.10
2018-07-03T22:42:42.511Z,64.08
2018-07-03T22:45:12.979Z,64.62
2018-07-03T22:47:43.953Z,64.82
2018-07-03T22:50:14.158Z,65.14
2018-07-03T22:52:44.582Z,65.19
2018-07-03T22:55:15.889Z,65.10
2018-07-03T22:57:46.262Z,65.78
2018-07-03T23:00:17.445Z,65.82
2018-07-03T23:02:47.915Z,64.86
2018-07-03T23:05:18.308Z,64.95
2018-07-03T23:07:48.783Z,65.52
2018-07-03T23:10:18.992Z,65.62
2018-07-03T23:12:49.306Z,65.70
2018-07-03T23:15:19.557Z,66.43
2018-07-03T23:17:49.748Z,66.15
2018-07-03T23:20:20.069Z,65.66
2018-07-03T23:22:50.383Z,66.29
2018-07-03T23:25:20.791Z,66.35
2018-07-03T23:27:51.316Z,66.03
2018-07-03T23:30:21.663Z,66.00
2018-07-03T23:32:52.069Z,66.01
2018-07-03T23:35:22.426Z,65.87
2018-07-03T23:37:52.896Z,66.17
2018-07-03T23:40:23.350Z,66.42
2018-07-03T23:42:53.668Z,66.91
2018-07-03T23:45:27.270Z,66.81
2018-07-03T23:48:08.522Z,67.16
2018-07-03T23:50:55.572Z,67.30
2018-07-03T23:53:42.891Z,67.72
2018-07-03T23:56:30.388Z,68.06
2018-07-03T23:59:17.532Z,68.11
